Time;durP1;ratioP1;P1;durP2;ratioP2;P2;SDS_P1;SDS_P2;PMS_P1;PMS_P2;Temp;Humidity;BMP_temperature;BMP_pressure;BME280_temperature;BME280_humidity;BME280_pressure;Samples;Min_cycle;Max_cycle;Signal;HPM_P1;HPM_P2
2023/05/10 00:01:47;;;;;;;0.30;0.30;;;13.50;93.40;;;;;;4423392;32;20053;-67
2023/05/10 00:04:13;;;;;;;0.55;0.52;;;13.40;93.60;;;;;;4430591;32;20065;-67
2023/05/10 00:06:38;;;;;;;0.55;0.55;;;13.40;93.60;;;;;;4428091;32;20066;-67
2023/05/10 00:09:04;;;;;;;0.60;0.60;;;13.50;94.00;;;;;;4430090;32;20116;-68
2023/05/10 00:11:29;;;;;;;1.05;0.95;;;13.40;93.70;;;;;;4431015;32;20085;-67
2023/05/10 00:13:55;;;;;;;2.28;1.00;;;13.50;93.80;;;;;;4431061;32;20065;-68
2023/05/10 00:16:20;;;;;;;0.40;0.40;;;13.40;93.90;;;;;;4425274;32;21346;-67
2023/05/10 00:18:46;;;;;;;0.35;0.35;;;13.50;93.90;;;;;;4430493;32;20609;-68
2023/05/10 00:21:11;;;;;;;0.50;0.50;;;13.50;93.80;;;;;;4424009;32;20073;-68
2023/05/10 00:23:37;;;;;;;0.50;0.50;;;13.50;94.10;;;;;;4433912;32;20404;-68
2023/05/10 00:26:03;;;;;;;3.28;1.37;;;13.40;93.90;;;;;;4429447;32;20077;-68
2023/05/10 00:28:29;;;;;;;0.45;0.45;;;13.50;94.00;;;;;;4428887;32;20065;-68
2023/05/10 00:30:55;;;;;;;2.58;0.62;;;13.50;93.90;;;;;;4428497;32;20081;-67
2023/05/10 00:33:20;;;;;;;0.40;0.40;;;13.40;94.30;;;;;;4430876;32;20112;-68
2023/05/10 00:35:46;;;;;;;1.75;1.23;;;13.30;94.40;;;;;;4427753;32;20064;-68
2023/05/10 00:38:11;;;;;;;0.40;0.40;;;13.40;94.20;;;;;;4423687;32;20083;-68
2023/05/10 00:40:37;;;;;;;0.85;0.57;;;13.40;94.30;;;;;;4428805;32;20073;-67
2023/05/10 00:43:03;;;;;;;0.60;0.60;;;13.30;94.40;;;;;;4428973;32;20454;-68
2023/05/10 00:45:31;;;;;;;5.60;1.00;;;13.30;94.50;;;;;;4427327;32;20081;-68
2023/05/10 00:47:56;;;;;;;0.50;0.50;;;13.30;94.50;;;;;;4432555;32;20449;-69
2023/05/10 00:50:23;;;;;;;3.60;2.05;;;13.30;94.40;;;;;;4432671;32;20077;-68
2023/05/10 00:52:49;;;;;;;0.90;0.90;;;13.40;94.50;;;;;;4432809;32;20077;-68
2023/05/10 00:55:14;;;;;;;0.50;0.50;;;13.30;94.30;;;;;;4428405;32;20077;-68
2023/05/10 00:57:40;;;;;;;0.73;0.65;;;13.30;94.50;;;;;;4423385;32;20093;-68
2023/05/10 01:00:07;;;;;;;0.60;0.60;;;13.20;94.40;;;;;;4430537;32;20426;-68
2023/05/10 01:02:34;;;;;;;1.35;0.73;;;13.20;94.50;;;;;;4428131;32;20098;-68
2023/05/10 01:05:01;;;;;;;0.50;0.50;;;13.30;94.50;;;;;;4429601;32;20061;-68
2023/05/10 01:07:26;;;;;;;0.57;0.57;;;13.10;94.80;;;;;;4431524;32;20502;-68
2023/05/10 01:09:52;;;;;;;0.40;0.40;;;13.20;94.80;;;;;;4430397;32;20117;-67
2023/05/10 01:12:17;;;;;;;0.60;0.57;;;13.00;95.00;;;;;;4427690;32;20093;-68
2023/05/10 01:14:43;;;;;;;0.50;0.50;;;13.10;94.90;;;;;;4430908;32;20093;-67
2023/05/10 01:17:10;;;;;;;0.60;0.60;;;13.10;94.80;;;;;;4427690;32;20088;-66
2023/05/10 01:19:37;;;;;;;0.65;0.50;;;13.10;94.90;;;;;;4429450;32;20428;-67
2023/05/10 01:22:38;;;;;;;0.50;0.50;;;13.10;95.00;;;;;;4430276;32;20734;-67
2023/05/10 01:25:18;;;;;;;0.50;0.50;;;13.20;94.80;;;;;;4423275;32;20624;-67
2023/05/10 01:28:04;;;;;;;0.55;0.55;;;13.20;94.70;;;;;;4425706;32;20073;-67
2023/05/10 01:30:54;;;;;;;0.85;0.70;;;13.10;95.10;;;;;;4424246;32;20513;-67
2023/05/10 01:33:30;;;;;;;0.55;0.55;;;13.00;94.80;;;;;;4425027;32;20095;-67
2023/05/10 01:36:06;;;;;;;0.55;0.55;;;13.00;95.10;;;;;;4429152;32;20773;-67
2023/05/10 01:38:42;;;;;;;0.70;0.68;;;12.90;95.30;;;;;;4432136;32;20133;-67
2023/05/10 01:41:35;;;;;;;0.70;0.70;;;12.90;95.70;;;;;;4429975;32;20065;-67
2023/05/10 01:44:25;;;;;;;1.50;0.75;;;12.80;95.80;;;;;;4425651;32;20057;-67
2023/05/10 01:47:01;;;;;;;0.70;0.70;;;12.80;95.50;;;;;;4427533;32;20092;-67
2023/05/10 01:49:31;;;;;;;3.53;0.75;;;12.90;95.40;;;;;;4425611;32;20131;-66
2023/05/10 01:52:06;;;;;;;1.12;1.05;;;12.90;95.50;;;;;;4429807;32;20077;-67
2023/05/10 01:54:34;;;;;;;1.17;1.08;;;12.80;95.70;;;;;;4432199;32;20105;-67
2023/05/10 01:57:03;;;;;;;0.60;0.60;;;12.80;95.90;;;;;;4424510;32;20073;-67
2023/05/10 01:59:36;;;;;;;2.30;1.30;;;12.80;96.10;;;;;;4425299;32;20361;-67
2023/05/10 02:02:04;;;;;;;0.75;0.75;;;12.60;96.00;;;;;;4428925;32;20149;-66
2023/05/10 02:04:30;;;;;;;0.57;0.55;;;12.60;96.30;;;;;;4435391;32;20085;-67
2023/05/10 02:06:57;;;;;;;0.88;0.68;;;12.60;96.40;;;;;;4430990;32;20058;-67
2023/05/10 02:09:25;;;;;;;0.80;0.80;;;12.60;96.50;;;;;;4431708;32;20406;-67
2023/05/10 02:11:51;;;;;;;1.80;1.30;;;12.70;96.60;;;;;;4428832;32;20069;-67
2023/05/10 02:14:18;;;;;;;0.75;0.75;;;12.60;96.60;;;;;;4428802;32;20143;-67
2023/05/10 02:16:45;;;;;;;0.60;0.60;;;12.60;96.50;;;;;;4425146;32;20583;-67
2023/05/10 02:19:13;;;;;;;1.00;0.65;;;12.60;96.70;;;;;;4431334;32;20121;-66
2023/05/10 02:21:41;;;;;;;0.50;0.50;;;12.60;96.60;;;;;;4428139;32;20061;-67
2023/05/10 02:24:08;;;;;;;0.62;0.62;;;12.50;96.90;;;;;;4425848;32;20084;-67
2023/05/10 02:26:34;;;;;;;0.43;0.43;;;12.40;97.10;;;;;;4432795;32;20143;-67
2023/05/10 02:29:03;;;;;;;0.55;0.50;;;12.20;97.60;;;;;;4434200;32;20057;-66
2023/05/10 02:31:30;;;;;;;1.65;0.68;;;12.20;97.60;;;;;;4427330;32;20442;-67
2023/05/10 02:33:56;;;;;;;1.90;1.02;;;12.30;97.70;;;;;;4430142;32;20504;-67
2023/05/10 02:36:22;;;;;;;0.88;0.70;;;12.30;97.90;;;;;;4430016;32;20470;-67
2023/05/10 02:38:51;;;;;;;1.45;0.55;;;12.20;98.10;;;;;;4435193;32;20058;-67
2023/05/10 02:41:18;;;;;;;0.62;0.62;;;12.10;98.20;;;;;;4424591;32;20074;-67
2023/05/10 02:43:45;;;;;;;0.90;0.62;;;12.10;98.30;;;;;;4428779;32;20065;-67
2023/05/10 02:46:10;;;;;;;0.75;0.75;;;12.10;98.40;;;;;;4428420;32;20072;-67
2023/05/10 02:48:36;;;;;;;9.85;0.82;;;12.10;98.30;;;;;;4432750;32;20440;-67
2023/05/10 02:51:06;;;;;;;1.37;0.60;;;12.10;98.40;;;;;;4433375;32;21494;-67
2023/05/10 02:53:35;;;;;;;0.80;0.80;;;12.00;98.60;;;;;;4430110;32;20060;-67
2023/05/10 02:56:06;;;;;;;1.58;0.55;;;12.10;98.70;;;;;;4426454;32;20353;-69
2023/05/10 02:58:32;;;;;;;;;;;12.10;98.80;;;;;;4424533;32;20572;-66
2023/05/10 03:00:57;;;;;;;0.70;0.70;;;12.00;98.90;;;;;;4429479;32;19974;-67
2023/05/10 03:03:23;;;;;;;0.70;0.70;;;11.90;99.30;;;;;;4428693;32;20038;-67
2023/05/10 03:05:49;;;;;;;0.70;0.60;;;11.90;99.70;;;;;;4430645;32;20080;-67
2023/05/10 03:08:14;;;;;;;0.75;0.60;;;11.80;99.90;;;;;;4429753;32;20073;-67
2023/05/10 03:10:54;;;;;;;0.73;0.73;;;11.90;99.50;;;;;;4432223;32;20407;-67
2023/05/10 03:13:35;;;;;;;2.08;0.77;;;11.80;99.50;;;;;;4430628;32;20120;-67
2023/05/10 03:16:09;;;;;;;0.30;0.30;;;11.80;99.90;;;;;;4432450;32;20382;-67
2023/05/10 03:19:15;;;;;;;23.40;0.80;;;11.80;99.90;;;;;;4429723;32;20045;-67
2023/05/10 03:21:47;;;;;;;0.65;0.65;;;11.90;99.90;;;;;;4419242;32;20093;-67
2023/05/10 03:24:15;;;;;;;0.75;0.75;;;11.80;99.90;;;;;;4432034;32;20074;-67
2023/05/10 03:26:43;;;;;;;0.57;0.57;;;11.60;99.90;;;;;;4432866;32;20120;-67
2023/05/10 03:29:09;;;;;;;0.43;0.43;;;11.70;99.90;;;;;;4432981;32;20146;-67
2023/05/10 03:31:35;;;;;;;0.60;0.60;;;11.70;99.90;;;;;;4432006;32;20128;-67
2023/05/10 03:34:01;;;;;;;1.00;0.90;;;11.70;99.90;;;;;;4435292;32;20068;-68
2023/05/10 03:36:26;;;;;;;0.47;0.47;;;11.70;99.90;;;;;;4429559;32;20219;-67
2023/05/10 03:38:52;;;;;;;0.60;0.60;;;11.70;99.90;;;;;;4430656;32;20149;-67
2023/05/10 03:41:17;;;;;;;1.00;0.93;;;11.60;99.90;;;;;;4430064;32;20086;-65
2023/05/10 03:43:43;;;;;;;26.05;2.55;;;11.60;99.90;;;;;;4428894;32;20533;-67
2023/05/10 03:46:08;;;;;;;0.32;0.32;;;11.60;99.90;;;;;;4430728;32;20092;-66
2023/05/10 03:48:33;;;;;;;0.50;0.50;;;11.70;99.90;;;;;;4428423;32;20093;-67
2023/05/10 03:50:59;;;;;;;0.68;0.68;;;11.70;99.90;;;;;;4429480;32;20119;-67
2023/05/10 03:53:24;;;;;;;3.10;1.10;;;11.60;99.90;;;;;;4428115;32;20603;-67
2023/05/10 03:55:50;;;;;;;0.60;0.60;;;11.50;99.90;;;;;;4430564;32;20135;-67
2023/05/10 03:58:15;;;;;;;0.60;0.60;;;11.40;99.90;;;;;;4429904;32;20077;-67
2023/05/10 04:00:44;;;;;;;0.47;0.47;;;11.50;99.90;;;;;;4432421;32;20081;-67
2023/05/10 04:03:10;;;;;;;0.85;0.77;;;11.50;99.90;;;;;;4432793;32;20061;-66
2023/05/10 04:05:36;;;;;;;0.50;0.50;;;11.60;99.90;;;;;;4429040;32;20068;-67
2023/05/10 04:08:02;;;;;;;0.60;0.60;;;11.60;99.90;;;;;;4427253;32;20998;-66
2023/05/10 04:10:28;;;;;;;0.60;0.60;;;11.60;99.90;;;;;;4432539;32;20062;-66
2023/05/10 04:12:53;;;;;;;0.68;0.68;;;11.60;99.90;;;;;;4430701;32;20061;-66
2023/05/10 04:15:19;;;;;;;3.62;1.08;;;11.60;99.90;;;;;;4429070;32;20077;-67
2023/05/10 04:17:44;;;;;;;1.30;0.60;;;11.60;99.90;;;;;;4424698;32;20120;-67
2023/05/10 04:20:10;;;;;;;0.60;0.60;;;11.60;99.90;;;;;;4429453;32;20085;-67
2023/05/10 04:22:37;;;;;;;0.50;0.50;;;11.60;99.90;;;;;;4421552;32;20614;-66
2023/05/10 04:25:02;;;;;;;0.60;0.60;;;11.60;99.90;;;;;;4429424;32;21366;-67
2023/05/10 04:27:28;;;;;;;1.00;1.00;;;11.60;99.90;;;;;;4429336;32;20077;-67
2023/05/10 04:29:53;;;;;;;0.65;0.60;;;11.60;99.90;;;;;;4430286;32;20082;-67
2023/05/10 04:32:20;;;;;;;0.60;0.60;;;11.60;99.90;;;;;;4429530;32;20057;-67
2023/05/10 04:34:45;;;;;;;0.43;0.43;;;11.70;99.90;;;;;;4428866;32;20073;-67
2023/05/10 04:37:11;;;;;;;0.80;0.80;;;11.80;99.90;;;;;;4431429;32;20505;-67
2023/05/10 04:39:36;;;;;;;4.37;0.95;;;11.90;99.90;;;;;;4427686;32;20086;-67
2023/05/10 04:42:03;;;;;;;0.62;0.60;;;11.90;99.90;;;;;;4427848;32;20500;-67
2023/05/10 04:44:29;;;;;;;0.65;0.65;;;12.00;99.90;;;;;;4427579;32;20144;-67
2023/05/10 04:46:55;;;;;;;1.52;1.37;;;12.00;99.90;;;;;;4432492;32;20057;-67
2023/05/10 04:49:20;;;;;;;3.97;0.88;;;12.00;99.90;;;;;;4432564;32;20571;-67
2023/05/10 04:51:46;;;;;;;0.45;0.45;;;12.00;99.90;;;;;;4428826;32;20066;-67
2023/05/10 04:54:11;;;;;;;1.12;1.02;;;11.90;99.90;;;;;;4430410;32;20426;-67
2023/05/10 04:56:37;;;;;;;0.75;0.75;;;12.00;99.90;;;;;;4430698;32;20078;-68
2023/05/10 04:59:02;;;;;;;1.92;1.15;;;12.10;99.90;;;;;;4427900;32;20065;-67
2023/05/10 05:01:28;;;;;;;0.40;0.40;;;12.10;99.90;;;;;;4426194;32;20094;-67
2023/05/10 05:03:53;;;;;;;0.85;0.70;;;12.10;99.90;;;;;;4428116;32;20084;-66
2023/05/10 05:06:20;;;;;;;0.52;0.52;;;12.20;99.90;;;;;;4426669;32;20521;-67
2023/05/10 05:08:46;;;;;;;0.55;0.55;;;12.30;99.90;;;;;;4427635;32;20097;-67
2023/05/10 05:11:11;;;;;;;0.70;0.50;;;12.30;99.90;;;;;;4432554;32;20116;-66
2023/05/10 05:13:37;;;;;;;0.50;0.50;;;12.50;99.90;;;;;;4426733;32;20563;-67
2023/05/10 05:16:03;;;;;;;1.73;0.52;;;12.40;99.90;;;;;;4432802;32;20101;-67
2023/05/10 05:18:28;;;;;;;1.00;0.85;;;12.40;99.90;;;;;;4417625;32;20166;-64
2023/05/10 05:20:54;;;;;;;0.75;0.73;;;12.60;99.90;;;;;;4440143;26;20224;-73
2023/05/10 05:23:20;;;;;;;0.40;0.40;;;12.60;99.70;;;;;;4412101;32;20085;-74
2023/05/10 05:25:46;;;;;;;0.60;0.60;;;12.60;99.60;;;;;;4412189;32;20113;-74
2023/05/10 05:28:12;;;;;;;0.47;0.47;;;12.70;99.40;;;;;;4406438;32;20073;-74
2023/05/10 05:30:37;;;;;;;0.50;0.50;;;12.70;99.40;;;;;;4402858;32;20642;-74
2023/05/10 05:33:03;;;;;;;0.60;0.60;;;12.90;99.20;;;;;;4399585;32;20139;-74
2023/05/10 05:35:29;;;;;;;0.80;0.80;;;13.00;99.20;;;;;;4411829;32;20073;-75
2023/05/10 05:37:55;;;;;;;0.80;0.80;;;13.10;98.80;;;;;;4407167;32;20503;-73
2023/05/10 05:40:23;;;;;;;0.50;0.50;;;13.20;98.90;;;;;;4411206;32;20069;-74
2023/05/10 05:42:50;;;;;;;0.60;0.60;;;13.20;98.70;;;;;;4412252;32;20102;-75
2023/05/10 05:45:16;;;;;;;0.40;0.40;;;13.20;98.80;;;;;;4405739;32;20141;-74
2023/05/10 05:47:41;;;;;;;2.72;1.05;;;13.20;98.70;;;;;;4404543;32;20161;-75
2023/05/10 05:50:07;;;;;;;0.43;0.43;;;13.30;98.40;;;;;;4394319;32;20306;-75
2023/05/10 05:52:33;;;;;;;0.50;0.50;;;13.30;98.50;;;;;;4390174;32;20133;-74
2023/05/10 05:54:58;;;;;;;0.57;0.57;;;13.40;98.60;;;;;;4399176;32;20073;-74
2023/05/10 05:57:24;;;;;;;1.08;1.00;;;13.50;98.80;;;;;;4390455;32;20097;-75
2023/05/10 05:59:49;;;;;;;0.80;0.50;;;13.70;98.30;;;;;;4383733;32;20773;-74
2023/05/10 06:02:15;;;;;;;4.57;1.48;;;13.70;98.00;;;;;;4375163;32;20559;-74
2023/05/10 06:04:40;;;;;;;1.10;0.68;;;13.80;97.70;;;;;;4363426;32;20499;-74
2023/05/10 06:07:06;;;;;;;0.57;0.57;;;13.80;97.60;;;;;;4373106;32;20082;-74
2023/05/10 06:09:31;;;;;;;0.40;0.40;;;14.00;97.50;;;;;;4366269;32;20077;-74
2023/05/10 06:11:57;;;;;;;0.68;0.68;;;14.10;97.20;;;;;;4375106;32;20156;-73
2023/05/10 06:14:22;;;;;;;2.92;0.95;;;14.20;97.40;;;;;;4372676;32;20140;-73
2023/05/10 06:16:48;;;;;;;0.73;0.70;;;14.20;97.10;;;;;;4371813;32;20636;-74
2023/05/10 06:19:13;;;;;;;0.30;0.30;;;14.20;97.60;;;;;;4372702;32;20256;-74
2023/05/10 06:21:39;;;;;;;0.43;0.43;;;14.30;97.20;;;;;;4368228;32;20109;-75
2023/05/10 06:24:06;;;;;;;0.30;0.30;;;14.40;97.00;;;;;;4372006;32;20790;-75
2023/05/10 06:26:32;;;;;;;0.35;0.35;;;14.40;97.00;;;;;;4375938;32;20164;-73
2023/05/10 06:28:57;;;;;;;0.40;0.40;;;14.40;97.30;;;;;;4377693;32;20203;-74
2023/05/10 06:31:23;;;;;;;0.35;0.35;;;14.40;96.90;;;;;;4383156;32;20121;-75
2023/05/10 06:33:48;;;;;;;0.70;0.70;;;14.40;96.60;;;;;;4373610;32;20102;-75
2023/05/10 06:36:14;;;;;;;0.43;0.43;;;14.50;96.90;;;;;;4369762;32;20479;-74
2023/05/10 06:38:40;;;;;;;0.50;0.50;;;14.60;96.20;;;;;;4370732;32;20152;-75
2023/05/10 06:41:06;;;;;;;0.60;0.60;;;14.70;96.20;;;;;;4377003;32;20915;-75
2023/05/10 06:43:32;;;;;;;0.50;0.50;;;14.70;96.20;;;;;;4372351;32;20115;-74
2023/05/10 06:45:57;;;;;;;0.50;0.50;;;14.70;96.40;;;;;;4372078;32;20106;-73
2023/05/10 06:48:23;;;;;;;1.65;0.68;;;14.70;96.40;;;;;;4368518;32;20101;-75
2023/05/10 06:50:49;;;;;;;0.75;0.75;;;14.80;96.50;;;;;;4373461;32;20097;-75
2023/05/10 06:53:15;;;;;;;3.22;1.75;;;14.80;96.00;;;;;;4372518;32;20254;-76
2023/05/10 06:55:40;;;;;;;0.37;0.37;;;14.90;96.40;;;;;;4363418;32;20093;-75
2023/05/10 06:58:06;;;;;;;0.75;0.75;;;14.90;96.20;;;;;;4367523;32;22077;-75
2023/05/10 07:00:32;;;;;;;0.40;0.40;;;15.00;96.30;;;;;;4361253;32;21400;-75
2023/05/10 07:02:58;;;;;;;0.50;0.50;;;15.10;96.00;;;;;;4361741;32;20326;-75
2023/05/10 07:05:23;;;;;;;0.40;0.40;;;15.20;95.70;;;;;;4368311;32;20118;-73
2023/05/10 07:07:49;;;;;;;0.47;0.47;;;15.20;95.70;;;;;;4371700;32;20074;-74
2023/05/10 07:10:14;;;;;;;0.45;0.45;;;15.20;95.80;;;;;;4373757;32;20162;-74
2023/05/10 07:12:40;;;;;;;0.40;0.40;;;15.30;95.40;;;;;;4360369;32;20145;-75
2023/05/10 07:15:06;;;;;;;0.30;0.30;;;15.20;95.70;;;;;;4368217;32;20090;-76
2023/05/10 07:17:33;;;;;;;0.30;0.30;;;15.30;95.60;;;;;;4361483;32;20112;-75
2023/05/10 07:19:59;;;;;;;0.50;0.50;;;15.40;95.60;;;;;;4366222;32;21040;-76
2023/05/10 07:22:26;;;;;;;0.30;0.30;;;15.50;95.30;;;;;;4365594;32;20098;-75
2023/05/10 07:24:52;;;;;;;0.30;0.30;;;15.50;95.10;;;;;;4369941;32;20105;-76
2023/05/10 07:27:17;;;;;;;0.40;0.40;;;15.50;94.80;;;;;;4367685;32;20606;-74
2023/05/10 07:29:42;;;;;;;0.50;0.50;;;15.70;94.90;;;;;;4357726;32;20097;-75
2023/05/10 07:32:08;;;;;;;0.50;0.50;;;15.80;94.50;;;;;;4354515;32;20195;-75
2023/05/10 07:34:34;;;;;;;0.52;0.43;;;15.90;94.70;;;;;;4351113;32;20459;-74
2023/05/10 07:37:00;;;;;;;0.30;0.30;;;16.00;94.10;;;;;;4362005;32;20109;-74
2023/05/10 07:39:27;;;;;;;0.85;0.40;;;16.10;94.30;;;;;;4364156;32;22171;-75
2023/05/10 07:41:52;;;;;;;0.50;0.50;;;16.30;94.40;;;;;;4374076;32;20182;-75
2023/05/10 07:44:20;;;;;;;1.35;0.82;;;16.50;94.20;;;;;;4371980;32;21645;-73
2023/05/10 07:46:45;;;;;;;2.65;0.80;;;16.60;93.60;;;;;;4368052;32;20109;-74
2023/05/10 07:49:11;;;;;;;0.30;0.30;;;16.50;93.30;;;;;;4360225;32;20144;-73
2023/05/10 07:51:36;;;;;;;0.40;0.40;;;16.50;93.50;;;;;;4362932;32;20098;-73
2023/05/10 07:54:02;;;;;;;0.30;0.30;;;16.60;93.50;;;;;;4356557;32;20655;-73
2023/05/10 07:56:29;;;;;;;0.35;0.35;;;16.70;93.50;;;;;;4368089;32;20108;-74
2023/05/10 07:58:56;;;;;;;0.70;0.60;;;16.90;93.30;;;;;;4367221;32;20592;-75
2023/05/10 08:01:22;;;;;;;2.00;0.47;;;16.90;93.10;;;;;;4362200;32;22232;-75
2023/05/10 08:03:48;;;;;;;1.08;0.77;;;17.10;93.10;;;;;;4372376;32;20113;-76
2023/05/10 08:06:15;;;;;;;0.55;0.55;;;17.20;92.80;;;;;;4363468;32;20169;-75
2023/05/10 08:08:41;;;;;;;0.37;0.37;;;17.30;92.70;;;;;;4366754;32;20144;-75
2023/05/10 08:11:06;;;;;;;2.75;1.17;;;17.30;92.70;;;;;;4372540;32;20152;-75
2023/05/10 08:13:32;;;;;;;0.22;0.22;;;17.20;92.70;;;;;;4372597;32;20674;-74
2023/05/10 08:15:58;;;;;;;2.08;0.73;;;17.20;93.00;;;;;;4371826;32;21001;-75
2023/05/10 08:18:23;;;;;;;0.45;0.45;;;17.20;92.90;;;;;;4367380;32;20565;-75
2023/05/10 08:20:49;;;;;;;0.30;0.30;;;17.40;92.90;;;;;;4373437;32;20099;-75
2023/05/10 08:23:14;;;;;;;0.28;0.28;;;17.30;92.80;;;;;;4369162;32;20339;-75
2023/05/10 08:25:40;;;;;;;5.03;1.25;;;17.50;92.50;;;;;;4363413;32;20154;-74
2023/05/10 08:28:05;;;;;;;0.40;0.40;;;17.50;92.80;;;;;;4364287;32;20104;-74
2023/05/10 08:30:31;;;;;;;0.50;0.50;;;17.80;92.10;;;;;;4366896;32;20240;-74
2023/05/10 08:32:57;;;;;;;0.40;0.40;;;17.70;92.60;;;;;;4366484;32;20152;-74
2023/05/10 08:35:22;;;;;;;0.30;0.30;;;17.90;92.50;;;;;;4362430;32;20093;-74
2023/05/10 08:37:48;;;;;;;1.45;0.85;;;17.80;92.00;;;;;;4366114;32;20098;-74
2023/05/10 08:40:15;;;;;;;0.20;0.20;;;17.80;93.00;;;;;;4371475;32;20089;-75
2023/05/10 08:42:51;;;;;;;0.40;0.40;;;18.00;92.30;;;;;;4375181;32;20832;-75
2023/05/10 08:45:19;;;;;;;0.30;0.30;;;18.20;92.10;;;;;;4375155;32;20136;-74
2023/05/10 08:47:45;;;;;;;0.65;0.65;;;18.40;92.60;;;;;;4371322;32;20204;-74
2023/05/10 08:50:11;;;;;;;0.68;0.68;;;18.40;91.70;;;;;;4363489;32;20109;-73
2023/05/10 08:52:40;;;;;;;0.55;0.55;;;18.30;91.70;;;;;;4365211;32;20090;-75
2023/05/10 08:55:06;;;;;;;2.30;0.40;;;18.10;91.60;;;;;;4371858;32;20719;-74
2023/05/10 08:57:31;;;;;;;0.40;0.40;;;18.20;92.10;;;;;;4371804;32;20101;-75
2023/05/10 08:59:57;;;;;;;0.30;0.30;;;18.40;92.00;;;;;;4371740;32;20070;-75
2023/05/10 09:02:24;;;;;;;0.30;0.30;;;18.40;91.30;;;;;;4362474;32;20636;-74
2023/05/10 09:04:50;;;;;;;0.75;0.50;;;18.60;91.50;;;;;;4355921;32;20115;-75
2023/05/10 09:07:16;;;;;;;0.55;0.55;;;18.70;91.10;;;;;;4366697;32;20136;-75
2023/05/10 09:09:43;;;;;;;0.47;0.47;;;18.60;91.20;;;;;;4365403;32;20801;-75
2023/05/10 09:12:11;;;;;;;0.35;0.35;;;18.60;91.20;;;;;;4377251;32;20156;-74
2023/05/10 09:14:37;;;;;;;0.40;0.40;;;18.90;91.00;;;;;;4375396;32;20109;-74
2023/05/10 09:17:04;;;;;;;0.30;0.30;;;19.00;91.30;;;;;;4371633;32;20593;-74
2023/05/10 09:19:29;;;;;;;0.70;0.70;;;19.00;90.90;;;;;;4376278;32;20832;-74
2023/05/10 09:21:55;;;;;;;0.40;0.40;;;19.10;91.00;;;;;;4363829;32;20158;-76
2023/05/10 09:24:25;;;;;;;0.55;0.55;;;19.30;91.20;;;;;;4366597;32;20283;-75
2023/05/10 09:26:51;;;;;;;0.67;0.57;;;19.30;90.30;;;;;;4371243;32;20156;-74
2023/05/10 09:29:16;;;;;;;0.30;0.30;;;19.40;90.40;;;;;;4371094;32;20110;-74
2023/05/10 09:31:57;;;;;;;0.40;0.40;;;19.40;89.40;;;;;;4352439;32;20159;-75
2023/05/10 09:34:31;;;;;;;;;;;19.40;90.10;;;;;;4372410;32;20692;-78
2023/05/10 09:37:00;;;;;;;0.20;0.20;;;19.70;90.70;;;;;;4361493;32;19975;-74
2023/05/10 09:39:37;;;;;;;0.35;0.35;;;20.00;90.90;;;;;;4363328;32;20719;-75
2023/05/10 09:42:05;;;;;;;0.30;0.30;;;20.30;89.50;;;;;;4364304;32;20093;-73
2023/05/10 09:44:32;;;;;;;0.40;0.40;;;20.30;89.40;;;;;;4370898;32;20097;-75
2023/05/10 09:46:58;;;;;;;0.32;0.32;;;20.60;90.10;;;;;;4372254;32;20090;-75
2023/05/10 09:49:24;;;;;;;0.60;0.32;;;21.00;89.40;;;;;;4371197;32;21486;-74
2023/05/10 09:52:07;;;;;;;0.30;0.30;;;21.00;87.20;;;;;;4369482;32;20836;-75
2023/05/10 09:54:33;;;;;;;0.30;0.30;;;21.00;86.20;;;;;;4379548;32;20097;-74
2023/05/10 09:56:58;;;;;;;0.85;0.82;;;21.10;86.00;;;;;;4374935;32;20109;-74
2023/05/10 09:59:28;;;;;;;0.70;0.40;;;21.10;86.20;;;;;;4375455;32;20932;-74
2023/05/10 10:01:59;;;;;;;0.47;0.40;;;21.20;85.40;;;;;;4372810;32;20254;-75
2023/05/10 10:04:25;;;;;;;0.40;0.40;;;21.30;85.40;;;;;;4357710;32;20097;-75
2023/05/10 10:07:01;;;;;;;0.20;0.20;;;21.50;85.70;;;;;;4368761;32;20525;-75
2023/05/10 10:09:27;;;;;;;0.30;0.30;;;21.50;84.60;;;;;;4370351;32;20746;-75
2023/05/10 10:11:53;;;;;;;0.40;0.40;;;21.60;84.10;;;;;;4359439;32;20133;-74
2023/05/10 10:14:20;;;;;;;2.50;1.20;;;21.80;85.00;;;;;;4363307;32;20114;-74
2023/05/10 10:16:46;;;;;;;0.20;0.20;;;22.00;84.70;;;;;;4346864;32;20762;-74
2023/05/10 10:19:12;;;;;;;0.40;0.40;;;22.00;83.60;;;;;;4367227;32;20855;-74
2023/05/10 10:21:37;;;;;;;0.75;0.60;;;22.00;82.60;;;;;;4371978;32;20093;-73
2023/05/10 10:24:05;;;;;;;0.20;0.20;;;22.20;83.50;;;;;;4383147;32;21482;-76
2023/05/10 10:26:33;;;;;;;0.32;0.32;;;22.30;83.60;;;;;;4377194;32;20126;-74
2023/05/10 10:29:12;;;;;;;0.60;0.60;;;22.30;82.50;;;;;;4371511;32;20069;-74
2023/05/10 10:31:45;;;;;;;0.50;0.50;;;22.50;82.70;;;;;;4374349;32;20105;-75
2023/05/10 10:34:25;;;;;;;1.60;1.08;;;23.00;81.60;;;;;;4374073;32;20097;-72
2023/05/10 10:36:51;;;;;;;0.37;0.33;;;23.00;80.60;;;;;;4371043;32;20098;-75
2023/05/10 10:39:19;;;;;;;6.25;0.43;;;23.30;80.60;;;;;;4382210;32;20172;-74
2023/05/10 10:42:02;;;;;;;2.72;1.02;;;23.30;79.70;;;;;;4385301;32;20220;-74
2023/05/10 10:44:33;;;;;;;0.30;0.30;;;23.50;79.30;;;;;;4378675;32;20344;-75
2023/05/10 10:47:08;;;;;;;0.30;0.30;;;23.70;78.90;;;;;;4389066;32;20110;-73
2023/05/10 10:49:48;;;;;;;0.40;0.40;;;23.80;77.70;;;;;;4383704;32;20174;-73
2023/05/10 10:52:35;;;;;;;1.17;0.80;;;23.60;78.10;;;;;;4376356;32;20171;-73
2023/05/10 10:55:26;;;;;;;0.50;0.50;;;23.70;79.70;;;;;;4352812;32;20094;-73
2023/05/10 10:58:00;;;;;;;0.35;0.35;;;24.10;76.40;;;;;;4360305;32;20434;-72
2023/05/10 11:00:28;;;;;;;1.55;0.52;;;24.20;76.50;;;;;;4378132;32;20490;-73
2023/05/10 11:03:00;;;;;;;0.35;0.30;;;24.40;76.30;;;;;;4378429;32;20541;-73
2023/05/10 11:05:36;;;;;;;0.28;0.28;;;24.70;75.20;;;;;;4380430;32;20090;-75
2023/05/10 11:08:09;;;;;;;0.55;0.55;;;25.10;72.90;;;;;;4357501;32;20276;-74
2023/05/10 11:10:34;;;;;;;0.28;0.28;;;25.20;73.60;;;;;;4356920;32;20078;-74
2023/05/10 11:13:05;;;;;;;0.57;0.57;;;25.30;71.90;;;;;;4364466;32;20106;-73
2023/05/10 11:15:34;;;;;;;0.90;0.68;;;25.10;73.00;;;;;;4366405;32;20097;-73
2023/05/10 11:18:15;;;;;;;0.52;0.52;;;25.60;71.30;;;;;;4357462;32;20093;-74
2023/05/10 11:20:41;;;;;;;0.85;0.62;;;25.50;70.40;;;;;;4358653;32;20130;-75
2023/05/10 11:23:15;;;;;;;0.88;0.60;;;25.60;71.00;;;;;;4364070;32;20255;-74
2023/05/10 11:25:45;;;;;;;0.20;0.20;;;25.60;71.40;;;;;;4364150;32;20449;-74
2023/05/10 11:28:12;;;;;;;0.22;0.22;;;25.50;71.10;;;;;;4369468;32;20207;-75
2023/05/10 11:30:39;;;;;;;2.33;1.17;;;25.70;70.80;;;;;;4371840;32;20952;-74
2023/05/10 11:33:06;;;;;;;0.45;0.45;;;25.80;70.40;;;;;;4368799;32;20850;-73
2023/05/10 11:35:38;;;;;;;0.30;0.30;;;25.80;70.30;;;;;;4364987;32;20110;-74
2023/05/10 11:38:06;;;;;;;0.68;0.37;;;25.90;69.80;;;;;;4360243;32;20703;-74
2023/05/10 11:40:32;;;;;;;21.35;0.37;;;26.20;70.60;;;;;;4358102;32;20085;-75
2023/05/10 11:42:57;;;;;;;0.20;0.20;;;26.50;68.90;;;;;;4361543;32;20139;-74
2023/05/10 11:45:24;;;;;;;1.10;0.47;;;26.50;67.80;;;;;;4363564;32;90438;-76
2023/05/10 11:47:51;;;;;;;0.13;0.13;;;27.10;66.10;;;;;;4366363;32;21560;-75
2023/05/10 11:50:17;;;;;;;0.17;0.17;;;26.90;66.50;;;;;;4378824;32;20088;-75
2023/05/10 11:52:43;;;;;;;0.52;0.13;;;26.70;65.70;;;;;;4376379;32;20753;-74
2023/05/10 11:55:08;;;;;;;0.32;0.25;;;26.60;68.10;;;;;;4376730;32;20099;-75
2023/05/10 11:57:38;;;;;;;0.37;0.35;;;27.10;65.20;;;;;;4379420;32;20101;-75
2023/05/10 12:00:04;;;;;;;0.43;0.30;;;27.10;65.70;;;;;;4379921;32;20110;-76
2023/05/10 12:02:30;;;;;;;0.03;0.03;;;27.50;65.50;;;;;;4377124;32;20388;-75
2023/05/10 12:04:56;;;;;;;0.00;0.00;;;27.50;65.00;;;;;;4377604;32;20077;-74
2023/05/10 12:07:21;;;;;;;0.10;0.10;;;28.50;63.30;;;;;;4374184;32;20097;-75
2023/05/10 12:10:04;;;;;;;0.20;0.20;;;28.30;61.80;;;;;;4377203;32;20140;-75
2023/05/10 12:12:41;;;;;;;0.68;0.40;;;28.00;63.00;;;;;;4378835;32;20200;-74
2023/05/10 12:15:12;;;;;;;1.00;0.73;;;28.50;62.60;;;;;;4378085;32;20105;-74
2023/05/10 12:17:39;;;;;;;1.60;0.50;;;28.50;61.90;;;;;;4380885;32;20114;-73
2023/05/10 12:20:22;;;;;;;0.75;0.28;;;28.70;63.20;;;;;;4375110;32;20635;-74
2023/05/10 12:22:51;;;;;;;0.10;0.10;;;29.00;60.80;;;;;;4362483;32;20118;-75
2023/05/10 12:25:18;;;;;;;0.52;0.30;;;28.90;61.60;;;;;;4374101;32;20085;-75
2023/05/10 12:27:52;;;;;;;3.25;0.40;;;28.80;60.80;;;;;;4376820;32;20097;-75
2023/05/10 12:30:20;;;;;;;0.20;0.20;;;28.90;61.20;;;;;;4375629;32;20136;-75
2023/05/10 12:32:46;;;;;;;1.40;0.28;;;29.20;59.00;;;;;;4371345;32;20142;-74
2023/05/10 12:35:11;;;;;;;0.40;0.30;;;29.40;59.30;;;;;;4373360;32;20085;-75
2023/05/10 12:37:38;;;;;;;0.65;0.40;;;29.30;58.90;;;;;;4370112;32;21622;-75
2023/05/10 12:40:07;;;;;;;3.50;0.98;;;29.80;58.10;;;;;;4382647;32;20484;-74
2023/05/10 12:42:35;;;;;;;0.13;0.10;;;29.40;57.80;;;;;;4380329;32;20492;-75
2023/05/10 12:45:00;;;;;;;0.30;0.30;;;29.60;58.20;;;;;;4386876;32;20422;-74
2023/05/10 12:47:26;;;;;;;0.00;0.00;;;29.80;58.20;;;;;;4378436;32;20097;-75
2023/05/10 12:49:51;;;;;;;0.10;0.10;;;30.00;58.70;;;;;;4384493;32;20105;-74
2023/05/10 12:52:17;;;;;;;0.50;0.40;;;30.10;58.30;;;;;;4389007;32;20237;-73